sensor_id;sensor_type;location;lat;lon;timestamp;temperature;humidity
18450;DHT22;9354;50.194;7.690;2023-08-06T00:01:19;15.00;99.90
18450;DHT22;9354;50.194;7.690;2023-08-06T00:03:47;15.00;99.90
18450;DHT22;9354;50.194;7.690;2023-08-06T00:06:14;15.00;99.90
18450;DHT22;9354;50.194;7.690;2023-08-06T00:08:43;15.00;99.90
18450;DHT22;9354;50.194;7.690;2023-08-06T00:11:10;15.00;99.90
18450;DHT22;9354;50.194;7.690;2023-08-06T00:13:38;14.90;99.90
18450;DHT22;9354;50.194;7.690;2023-08-06T00:16:10;14.90;99.90
18450;DHT22;9354;50.194;7.690;2023-08-06T00:18:37;14.90;99.90
18450;DHT22;9354;50.194;7.690;2023-08-06T00:21:05;14.90;99.90
18450;DHT22;9354;50.194;7.690;2023-08-06T00:23:32;14.90;99.90
18450;DHT22;9354;50.194;7.690;2023-08-06T00:26:01;14.90;99.90
18450;DHT22;9354;50.194;7.690;2023-08-06T00:28:28;14.90;99.90
18450;DHT22;9354;50.194;7.690;2023-08-06T00:30:56;14.90;99.90
18450;DHT22;9354;50.194;7.690;2023-08-06T00:33:24;14.90;99.90
18450;DHT22;9354;50.194;7.690;2023-08-06T00:35:51;14.90;99.90
18450;DHT22;9354;50.194;7.690;2023-08-06T00:38:18;14.90;99.90
18450;DHT22;9354;50.194;7.690;2023-08-06T00:40:46;14.90;99.90
18450;DHT22;9354;50.194;7.690;2023-08-06T00:43:14;14.90;99.90
18450;DHT22;9354;50.194;7.690;2023-08-06T00:45:42;14.90;99.90
18450;DHT22;9354;50.194;7.690;2023-08-06T00:48:10;14.90;99.90
18450;DHT22;9354;50.194;7.690;2023-08-06T00:50:38;14.90;99.90
18450;DHT22;9354;50.194;7.690;2023-08-06T00:53:05;14.90;99.90
18450;DHT22;9354;50.194;7.690;2023-08-06T00:55:33;14.90;99.90
18450;DHT22;9354;50.194;7.690;2023-08-06T00:58:01;14.90;99.90
18450;DHT22;9354;50.194;7.690;2023-08-06T01:00:29;14.90;99.90
18450;DHT22;9354;50.194;7.690;2023-08-06T01:02:57;14.90;99.90
18450;DHT22;9354;50.194;7.690;2023-08-06T01:05:25;14.90;99.90
18450;DHT22;9354;50.194;7.690;2023-08-06T01:08:03;14.80;99.90
18450;DHT22;9354;50.194;7.690;2023-08-06T01:10:45;14.80;99.90
18450;DHT22;9354;50.194;7.690;2023-08-06T01:13:24;14.80;99.90
18450;DHT22;9354;50.194;7.690;2023-08-06T01:15:55;14.80;99.90
18450;DHT22;9354;50.194;7.690;2023-08-06T01:18:24;14.70;99.90
18450;DHT22;9354;50.194;7.690;2023-08-06T01:20:53;14.70;99.90
18450;DHT22;9354;50.194;7.690;2023-08-06T01:23:20;14.70;99.90
18450;DHT22;9354;50.194;7.690;2023-08-06T01:25:53;14.70;99.90
18450;DHT22;9354;50.194;7.690;2023-08-06T01:28:30;14.70;99.90
18450;DHT22;9354;50.194;7.690;2023-08-06T01:31:01;14.70;99.90
18450;DHT22;9354;50.194;7.690;2023-08-06T01:33:32;14.70;99.90
18450;DHT22;9354;50.194;7.690;2023-08-06T01:36:04;14.80;99.90
18450;DHT22;9354;50.194;7.690;2023-08-06T01:38:32;14.80;99.90
18450;DHT22;9354;50.194;7.690;2023-08-06T01:41:00;14.70;99.90
18450;DHT22;9354;50.194;7.690;2023-08-06T01:43:27;14.70;99.90
18450;DHT22;9354;50.194;7.690;2023-08-06T01:45:54;14.70;99.90
18450;DHT22;9354;50.194;7.690;2023-08-06T01:48:22;14.70;99.90
18450;DHT22;9354;50.194;7.690;2023-08-06T01:50:49;14.70;99.90
18450;DHT22;9354;50.194;7.690;2023-08-06T01:53:18;14.70;99.90
18450;DHT22;9354;50.194;7.690;2023-08-06T01:55:48;14.70;99.90
18450;DHT22;9354;50.194;7.690;2023-08-06T01:58:15;14.70;99.90
18450;DHT22;9354;50.194;7.690;2023-08-06T02:00:43;14.70;99.90
18450;DHT22;9354;50.194;7.690;2023-08-06T02:03:10;14.60;99.90
18450;DHT22;9354;50.194;7.690;2023-08-06T02:05:37;14.60;99.90
18450;DHT22;9354;50.194;7.690;2023-08-06T02:08:05;14.60;99.90
18450;DHT22;9354;50.194;7.690;2023-08-06T02:10:33;14.60;99.90
18450;DHT22;9354;50.194;7.690;2023-08-06T02:13:01;14.60;99.90
18450;DHT22;9354;50.194;7.690;2023-08-06T02:15:28;14.60;99.90
18450;DHT22;9354;50.194;7.690;2023-08-06T02:17:56;14.60;99.90
18450;DHT22;9354;50.194;7.690;2023-08-06T02:20:23;14.60;99.90
18450;DHT22;9354;50.194;7.690;2023-08-06T02:22:50;14.60;99.90
18450;DHT22;9354;50.194;7.690;2023-08-06T02:25:18;14.70;99.90
18450;DHT22;9354;50.194;7.690;2023-08-06T02:27:47;14.60;99.90
18450;DHT22;9354;50.194;7.690;2023-08-06T02:30:14;14.60;99.90
18450;DHT22;9354;50.194;7.690;2023-08-06T02:32:41;14.60;99.90
18450;DHT22;9354;50.194;7.690;2023-08-06T02:35:10;14.60;99.90
18450;DHT22;9354;50.194;7.690;2023-08-06T02:37:37;14.60;99.90
18450;DHT22;9354;50.194;7.690;2023-08-06T02:40:05;14.60;99.90
18450;DHT22;9354;50.194;7.690;2023-08-06T02:42:33;14.60;99.90
18450;DHT22;9354;50.194;7.690;2023-08-06T02:45:02;14.60;99.90
18450;DHT22;9354;50.194;7.690;2023-08-06T02:47:30;14.60;99.90
18450;DHT22;9354;50.194;7.690;2023-08-06T02:49:58;14.60;99.90
18450;DHT22;9354;50.194;7.690;2023-08-06T02:52:25;14.60;99.90
18450;DHT22;9354;50.194;7.690;2023-08-06T02:54:52;14.60;99.90
18450;DHT22;9354;50.194;7.690;2023-08-06T02:57:20;14.60;99.90
18450;DHT22;9354;50.194;7.690;2023-08-06T02:59:47;14.60;99.90
18450;DHT22;9354;50.194;7.690;2023-08-06T03:02:16;14.60;99.90
18450;DHT22;9354;50.194;7.690;2023-08-06T03:04:43;14.60;99.90
18450;DHT22;9354;50.194;7.690;2023-08-06T03:07:10;14.60;99.90
18450;DHT22;9354;50.194;7.690;2023-08-06T03:09:38;14.60;99.90
18450;DHT22;9354;50.194;7.690;2023-08-06T03:12:06;14.60;99.90
18450;DHT22;9354;50.194;7.690;2023-08-06T03:14:34;14.60;99.90
18450;DHT22;9354;50.194;7.690;2023-08-06T03:17:01;14.60;99.90
18450;DHT22;9354;50.194;7.690;2023-08-06T03:19:30;14.60;99.90
18450;DHT22;9354;50.194;7.690;2023-08-06T03:21:57;14.50;99.90
18450;DHT22;9354;50.194;7.690;2023-08-06T03:24:25;14.50;99.90
18450;DHT22;9354;50.194;7.690;2023-08-06T03:26:52;14.50;99.90
18450;DHT22;9354;50.194;7.690;2023-08-06T03:29:19;14.50;99.90
18450;DHT22;9354;50.194;7.690;2023-08-06T03:31:47;14.50;99.90
18450;DHT22;9354;50.194;7.690;2023-08-06T03:34:15;14.50;99.90
18450;DHT22;9354;50.194;7.690;2023-08-06T03:36:43;14.50;99.90
18450;DHT22;9354;50.194;7.690;2023-08-06T03:39:11;14.40;99.90
18450;DHT22;9354;50.194;7.690;2023-08-06T03:41:40;14.40;99.90
18450;DHT22;9354;50.194;7.690;2023-08-06T03:44:07;14.40;99.90
18450;DHT22;9354;50.194;7.690;2023-08-06T03:46:34;14.30;99.90
18450;DHT22;9354;50.194;7.690;2023-08-06T03:49:02;14.20;99.90
18450;DHT22;9354;50.194;7.690;2023-08-06T03:51:29;14.20;99.90
18450;DHT22;9354;50.194;7.690;2023-08-06T03:53:58;14.10;99.90
18450;DHT22;9354;50.194;7.690;2023-08-06T03:56:25;14.10;99.90
18450;DHT22;9354;50.194;7.690;2023-08-06T03:58:53;14.10;99.90
18450;DHT22;9354;50.194;7.690;2023-08-06T04:01:20;14.00;99.90
18450;DHT22;9354;50.194;7.690;2023-08-06T04:03:48;14.00;99.90
18450;DHT22;9354;50.194;7.690;2023-08-06T04:06:15;14.00;99.90
18450;DHT22;9354;50.194;7.690;2023-08-06T04:08:43;14.00;99.90
18450;DHT22;9354;50.194;7.690;2023-08-06T04:11:11;14.00;99.90
18450;DHT22;9354;50.194;7.690;2023-08-06T04:13:42;14.00;99.90
18450;DHT22;9354;50.194;7.690;2023-08-06T04:16:10;14.00;99.90
18450;DHT22;9354;50.194;7.690;2023-08-06T04:18:38;14.00;99.90
18450;DHT22;9354;50.194;7.690;2023-08-06T04:21:05;14.00;99.90
18450;DHT22;9354;50.194;7.690;2023-08-06T04:23:33;14.00;99.90
18450;DHT22;9354;50.194;7.690;2023-08-06T04:26:00;14.10;99.90
18450;DHT22;9354;50.194;7.690;2023-08-06T04:28:29;14.10;99.90
18450;DHT22;9354;50.194;7.690;2023-08-06T04:30:56;14.10;99.90
18450;DHT22;9354;50.194;7.690;2023-08-06T04:33:24;14.10;99.90
18450;DHT22;9354;50.194;7.690;2023-08-06T04:35:54;14.10;99.90
18450;DHT22;9354;50.194;7.690;2023-08-06T04:38:23;14.10;99.90
18450;DHT22;9354;50.194;7.690;2023-08-06T04:40:51;14.10;99.90
18450;DHT22;9354;50.194;7.690;2023-08-06T04:43:19;14.20;99.90
18450;DHT22;9354;50.194;7.690;2023-08-06T04:45:48;14.20;99.90
18450;DHT22;9354;50.194;7.690;2023-08-06T04:48:15;14.10;99.90
18450;DHT22;9354;50.194;7.690;2023-08-06T04:50:44;14.10;99.90
18450;DHT22;9354;50.194;7.690;2023-08-06T04:53:11;14.10;99.90
18450;DHT22;9354;50.194;7.690;2023-08-06T04:55:39;14.10;99.90
18450;DHT22;9354;50.194;7.690;2023-08-06T04:58:07;14.10;99.90
18450;DHT22;9354;50.194;7.690;2023-08-06T05:00:34;14.10;99.90
18450;DHT22;9354;50.194;7.690;2023-08-06T05:03:03;14.10;99.90
18450;DHT22;9354;50.194;7.690;2023-08-06T05:05:30;14.10;99.90
18450;DHT22;9354;50.194;7.690;2023-08-06T05:07:58;14.10;99.90
18450;DHT22;9354;50.194;7.690;2023-08-06T05:10:25;14.10;99.90
18450;DHT22;9354;50.194;7.690;2023-08-06T05:12:53;14.10;99.90
18450;DHT22;9354;50.194;7.690;2023-08-06T05:15:21;14.10;99.90
18450;DHT22;9354;50.194;7.690;2023-08-06T05:17:48;14.10;99.90
18450;DHT22;9354;50.194;7.690;2023-08-06T05:20:17;14.10;99.90
18450;DHT22;9354;50.194;7.690;2023-08-06T05:22:44;14.10;99.90
18450;DHT22;9354;50.194;7.690;2023-08-06T05:25:13;14.10;99.90
18450;DHT22;9354;50.194;7.690;2023-08-06T05:27:40;14.10;99.90
18450;DHT22;9354;50.194;7.690;2023-08-06T05:30:09;14.10;99.90
18450;DHT22;9354;50.194;7.690;2023-08-06T05:32:36;14.10;99.90
18450;DHT22;9354;50.194;7.690;2023-08-06T05:35:04;14.10;99.90
18450;DHT22;9354;50.194;7.690;2023-08-06T05:37:33;14.10;99.90
18450;DHT22;9354;50.194;7.690;2023-08-06T05:40:02;14.10;99.90
18450;DHT22;9354;50.194;7.690;2023-08-06T05:42:30;14.10;99.90
18450;DHT22;9354;50.194;7.690;2023-08-06T05:44:57;14.10;99.90
18450;DHT22;9354;50.194;7.690;2023-08-06T05:47:25;14.10;99.90
18450;DHT22;9354;50.194;7.690;2023-08-06T05:49:52;14.20;99.90
18450;DHT22;9354;50.194;7.690;2023-08-06T05:52:19;14.20;99.90
18450;DHT22;9354;50.194;7.690;2023-08-06T05:54:48;14.20;99.90
18450;DHT22;9354;50.194;7.690;2023-08-06T05:57:16;14.20;99.90
18450;DHT22;9354;50.194;7.690;2023-08-06T05:59:43;14.30;99.90
18450;DHT22;9354;50.194;7.690;2023-08-06T06:02:11;14.30;99.90
18450;DHT22;9354;50.194;7.690;2023-08-06T06:04:40;14.40;99.90
18450;DHT22;9354;50.194;7.690;2023-08-06T06:07:07;14.30;99.90
18450;DHT22;9354;50.194;7.690;2023-08-06T06:09:35;14.40;99.90
18450;DHT22;9354;50.194;7.690;2023-08-06T06:12:04;14.40;99.90
18450;DHT22;9354;50.194;7.690;2023-08-06T06:14:32;14.50;99.90
18450;DHT22;9354;50.194;7.690;2023-08-06T06:16:59;14.60;99.90
18450;DHT22;9354;50.194;7.690;2023-08-06T06:19:27;14.60;99.90
18450;DHT22;9354;50.194;7.690;2023-08-06T06:21:54;14.70;99.90
18450;DHT22;9354;50.194;7.690;2023-08-06T06:24:23;14.80;99.90
18450;DHT22;9354;50.194;7.690;2023-08-06T06:26:51;14.80;99.90
18450;DHT22;9354;50.194;7.690;2023-08-06T06:29:19;14.90;99.90
18450;DHT22;9354;50.194;7.690;2023-08-06T06:31:47;15.00;99.90
18450;DHT22;9354;50.194;7.690;2023-08-06T06:34:14;15.00;99.90
18450;DHT22;9354;50.194;7.690;2023-08-06T06:36:41;15.00;99.90
18450;DHT22;9354;50.194;7.690;2023-08-06T06:39:09;15.10;99.90
18450;DHT22;9354;50.194;7.690;2023-08-06T06:41:36;15.10;99.90
18450;DHT22;9354;50.194;7.690;2023-08-06T06:44:05;15.20;99.90
18450;DHT22;9354;50.194;7.690;2023-08-06T06:46:33;15.20;99.90
18450;DHT22;9354;50.194;7.690;2023-08-06T06:49:01;15.20;99.90
18450;DHT22;9354;50.194;7.690;2023-08-06T06:51:28;15.30;99.90
18450;DHT22;9354;50.194;7.690;2023-08-06T06:53:57;15.30;99.90
18450;DHT22;9354;50.194;7.690;2023-08-06T06:56:25;15.40;99.90
18450;DHT22;9354;50.194;7.690;2023-08-06T06:58:52;15.40;99.90
18450;DHT22;9354;50.194;7.690;2023-08-06T07:01:20;15.50;99.90
18450;DHT22;9354;50.194;7.690;2023-08-06T07:03:48;15.50;99.90
18450;DHT22;9354;50.194;7.690;2023-08-06T07:06:16;15.50;99.90
18450;DHT22;9354;50.194;7.690;2023-08-06T07:08:44;15.50;99.90
18450;DHT22;9354;50.194;7.690;2023-08-06T07:11:11;15.50;99.90
18450;DHT22;9354;50.194;7.690;2023-08-06T07:13:39;15.60;99.90
18450;DHT22;9354;50.194;7.690;2023-08-06T07:16:06;15.60;99.90
18450;DHT22;9354;50.194;7.690;2023-08-06T07:18:33;15.70;99.90
18450;DHT22;9354;50.194;7.690;2023-08-06T07:21:02;15.70;99.90
18450;DHT22;9354;50.194;7.690;2023-08-06T07:23:30;15.90;99.90
18450;DHT22;9354;50.194;7.690;2023-08-06T07:25:57;15.90;99.90
18450;DHT22;9354;50.194;7.690;2023-08-06T07:28:24;16.00;99.90
18450;DHT22;9354;50.194;7.690;2023-08-06T07:30:52;16.00;99.90
18450;DHT22;9354;50.194;7.690;2023-08-06T07:33:19;16.10;99.90
18450;DHT22;9354;50.194;7.690;2023-08-06T07:35:46;16.20;99.90
18450;DHT22;9354;50.194;7.690;2023-08-06T07:38:15;16.20;99.90
18450;DHT22;9354;50.194;7.690;2023-08-06T07:40:42;16.20;99.90
18450;DHT22;9354;50.194;7.690;2023-08-06T07:43:10;16.20;99.90
18450;DHT22;9354;50.194;7.690;2023-08-06T07:45:37;16.30;99.90
18450;DHT22;9354;50.194;7.690;2023-08-06T07:48:05;16.30;99.90
18450;DHT22;9354;50.194;7.690;2023-08-06T07:50:32;16.40;99.90
18450;DHT22;9354;50.194;7.690;2023-08-06T07:53:00;16.50;99.90
18450;DHT22;9354;50.194;7.690;2023-08-06T07:55:28;16.60;99.90
18450;DHT22;9354;50.194;7.690;2023-08-06T07:57:56;16.80;99.90
18450;DHT22;9354;50.194;7.690;2023-08-06T08:00:23;16.80;99.90
18450;DHT22;9354;50.194;7.690;2023-08-06T08:02:50;16.70;99.90
18450;DHT22;9354;50.194;7.690;2023-08-06T08:05:18;16.80;99.90
18450;DHT22;9354;50.194;7.690;2023-08-06T08:07:45;16.80;99.90
18450;DHT22;9354;50.194;7.690;2023-08-06T08:10:13;16.90;99.90
18450;DHT22;9354;50.194;7.690;2023-08-06T08:12:42;16.90;99.90
18450;DHT22;9354;50.194;7.690;2023-08-06T08:15:09;16.90;99.90
18450;DHT22;9354;50.194;7.690;2023-08-06T08:17:37;16.80;99.90
18450;DHT22;9354;50.194;7.690;2023-08-06T08:20:05;16.70;99.90
18450;DHT22;9354;50.194;7.690;2023-08-06T08:22:33;16.80;99.90
18450;DHT22;9354;50.194;7.690;2023-08-06T08:25:00;16.70;99.90
18450;DHT22;9354;50.194;7.690;2023-08-06T08:27:29;16.70;99.90
18450;DHT22;9354;50.194;7.690;2023-08-06T08:29:58;16.60;99.90
18450;DHT22;9354;50.194;7.690;2023-08-06T08:32:25;16.50;99.90
18450;DHT22;9354;50.194;7.690;2023-08-06T08:34:53;16.50;99.90
18450;DHT22;9354;50.194;7.690;2023-08-06T08:37:20;16.40;99.90
18450;DHT22;9354;50.194;7.690;2023-08-06T08:39:47;16.50;99.90
18450;DHT22;9354;50.194;7.690;2023-08-06T08:42:15;16.50;99.90
18450;DHT22;9354;50.194;7.690;2023-08-06T08:44:43;16.60;99.90
18450;DHT22;9354;50.194;7.690;2023-08-06T08:47:13;16.70;99.90
18450;DHT22;9354;50.194;7.690;2023-08-06T08:49:42;16.70;99.90
18450;DHT22;9354;50.194;7.690;2023-08-06T08:52:10;16.70;99.90
18450;DHT22;9354;50.194;7.690;2023-08-06T08:54:39;16.80;99.90
18450;DHT22;9354;50.194;7.690;2023-08-06T08:57:07;16.80;99.90
18450;DHT22;9354;50.194;7.690;2023-08-06T08:59:35;16.80;99.90
18450;DHT22;9354;50.194;7.690;2023-08-06T09:02:02;16.80;99.90
18450;DHT22;9354;50.194;7.690;2023-08-06T09:04:32;16.80;99.90
18450;DHT22;9354;50.194;7.690;2023-08-06T09:07:02;16.90;99.90
18450;DHT22;9354;50.194;7.690;2023-08-06T09:09:31;16.90;99.90
18450;DHT22;9354;50.194;7.690;2023-08-06T09:12:09;17.00;99.90
18450;DHT22;9354;50.194;7.690;2023-08-06T09:14:38;17.00;99.90
18450;DHT22;9354;50.194;7.690;2023-08-06T09:17:05;16.90;99.90
18450;DHT22;9354;50.194;7.690;2023-08-06T09:19:34;16.90;99.90
18450;DHT22;9354;50.194;7.690;2023-08-06T09:22:02;16.80;99.90
18450;DHT22;9354;50.194;7.690;2023-08-06T09:24:38;16.70;99.90
18450;DHT22;9354;50.194;7.690;2023-08-06T09:27:10;16.70;99.90
18450;DHT22;9354;50.194;7.690;2023-08-06T09:29:40;16.60;99.90
18450;DHT22;9354;50.194;7.690;2023-08-06T09:32:08;16.50;99.90
18450;DHT22;9354;50.194;7.690;2023-08-06T09:34:39;16.50;99.90
18450;DHT22;9354;50.194;7.690;2023-08-06T09:37:08;16.50;99.90
18450;DHT22;9354;50.194;7.690;2023-08-06T09:39:39;16.60;99.90
18450;DHT22;9354;50.194;7.690;2023-08-06T09:42:06;16.80;99.90
18450;DHT22;9354;50.194;7.690;2023-08-06T09:44:34;17.10;99.90
18450;DHT22;9354;50.194;7.690;2023-08-06T09:47:03;17.50;99.90
18450;DHT22;9354;50.194;7.690;2023-08-06T09:49:42;17.80;99.90
18450;DHT22;9354;50.194;7.690;2023-08-06T09:52:12;18.10;99.90
18450;DHT22;9354;50.194;7.690;2023-08-06T09:54:43;18.40;99.90
18450;DHT22;9354;50.194;7.690;2023-08-06T09:57:12;18.60;99.90
18450;DHT22;9354;50.194;7.690;2023-08-06T09:59:42;19.00;99.90
18450;DHT22;9354;50.194;7.690;2023-08-06T10:02:12;19.20;99.90
18450;DHT22;9354;50.194;7.690;2023-08-06T10:04:43;19.20;99.90
18450;DHT22;9354;50.194;7.690;2023-08-06T10:07:11;19.00;99.90
18450;DHT22;9354;50.194;7.690;2023-08-06T10:09:39;18.80;99.90
18450;DHT22;9354;50.194;7.690;2023-08-06T10:12:06;18.40;99.90
18450;DHT22;9354;50.194;7.690;2023-08-06T10:14:43;18.00;99.90
18450;DHT22;9354;50.194;7.690;2023-08-06T10:17:11;17.60;99.90
18450;DHT22;9354;50.194;7.690;2023-08-06T10:19:39;17.20;99.90
18450;DHT22;9354;50.194;7.690;2023-08-06T10:22:11;16.80;99.90
18450;DHT22;9354;50.194;7.690;2023-08-06T10:24:49;16.50;99.90
18450;DHT22;9354;50.194;7.690;2023-08-06T10:27:21;16.20;99.90
18450;DHT22;9354;50.194;7.690;2023-08-06T10:29:49;16.00;99.90
18450;DHT22;9354;50.194;7.690;2023-08-06T10:32:16;15.90;99.90
18450;DHT22;9354;50.194;7.690;2023-08-06T10:35:03;15.70;99.90
18450;DHT22;9354;50.194;7.690;2023-08-06T10:37:37;15.60;99.90
18450;DHT22;9354;50.194;7.690;2023-08-06T10:40:07;15.50;99.90
18450;DHT22;9354;50.194;7.690;2023-08-06T10:42:34;15.40;99.90
18450;DHT22;9354;50.194;7.690;2023-08-06T10:45:12;15.30;99.90
18450;DHT22;9354;50.194;7.690;2023-08-06T10:47:41;15.30;99.90
18450;DHT22;9354;50.194;7.690;2023-08-06T10:50:12;15.30;99.90
18450;DHT22;9354;50.194;7.690;2023-08-06T10:52:41;15.30;99.90
18450;DHT22;9354;50.194;7.690;2023-08-06T10:55:08;15.30;99.90
18450;DHT22;9354;50.194;7.690;2023-08-06T10:57:36;15.30;99.90
18450;DHT22;9354;50.194;7.690;2023-08-06T11:00:05;15.30;99.90
18450;DHT22;9354;50.194;7.690;2023-08-06T11:02:35;15.30;99.90
18450;DHT22;9354;50.194;7.690;2023-08-06T11:05:06;15.30;99.90
18450;DHT22;9354;50.194;7.690;2023-08-06T11:07:34;15.30;99.90
18450;DHT22;9354;50.194;7.690;2023-08-06T11:10:05;15.20;99.90
18450;DHT22;9354;50.194;7.690;2023-08-06T11:12:33;15.20;99.90
18450;DHT22;9354;50.194;7.690;2023-08-06T11:15:02;15.20;99.90
18450;DHT22;9354;50.194;7.690;2023-08-06T11:17:31;15.10;99.90
18450;DHT22;9354;50.194;7.690;2023-08-06T11:20:00;15.20;99.90
18450;DHT22;9354;50.194;7.690;2023-08-06T11:22:27;15.10;99.90
18450;DHT22;9354;50.194;7.690;2023-08-06T11:24:55;15.10;99.90
18450;DHT22;9354;50.194;7.690;2023-08-06T11:27:26;15.00;99.90
18450;DHT22;9354;50.194;7.690;2023-08-06T11:29:54;15.00;99.90
18450;DHT22;9354;50.194;7.690;2023-08-06T11:32:21;15.00;99.90
18450;DHT22;9354;50.194;7.690;2023-08-06T11:34:48;15.00;99.90
18450;DHT22;9354;50.194;7.690;2023-08-06T11:37:16;15.00;99.90
18450;DHT22;9354;50.194;7.690;2023-08-06T11:39:46;15.00;99.90
18450;DHT22;9354;50.194;7.690;2023-08-06T11:42:14;15.00;99.90
18450;DHT22;9354;50.194;7.690;2023-08-06T11:44:43;15.00;99.90
18450;DHT22;9354;50.194;7.690;2023-08-06T11:47:14;15.00;99.90
18450;DHT22;9354;50.194;7.690;2023-08-06T11:49:43;15.00;99.90
18450;DHT22;9354;50.194;7.690;2023-08-06T11:52:14;15.00;99.90
18450;DHT22;9354;50.194;7.690;2023-08-06T11:54:42;15.10;99.90
18450;DHT22;9354;50.194;7.690;2023-08-06T11:57:10;15.10;99.90
18450;DHT22;9354;50.194;7.690;2023-08-06T11:59:38;15.00;99.90
18450;DHT22;9354;50.194;7.690;2023-08-06T12:02:09;15.10;99.90
18450;DHT22;9354;50.194;7.690;2023-08-06T12:04:59;15.00;99.90
18450;DHT22;9354;50.194;7.690;2023-08-06T12:10:36;15.00;99.90
18450;DHT22;9354;50.194;7.690;2023-08-06T12:13:03;15.00;99.90
18450;DHT22;9354;50.194;7.690;2023-08-06T12:15:31;15.00;99.90
18450;DHT22;9354;50.194;7.690;2023-08-06T12:17:59;15.00;99.90
18450;DHT22;9354;50.194;7.690;2023-08-06T12:20:27;15.00;99.90
18450;DHT22;9354;50.194;7.690;2023-08-06T12:22:54;15.00;99.90
18450;DHT22;9354;50.194;7.690;2023-08-06T12:25:22;15.00;99.90
18450;DHT22;9354;50.194;7.690;2023-08-06T12:27:50;14.90;99.90
18450;DHT22;9354;50.194;7.690;2023-08-06T12:30:17;15.00;99.90
18450;DHT22;9354;50.194;7.690;2023-08-06T12:32:45;14.90;99.90
18450;DHT22;9354;50.194;7.690;2023-08-06T12:35:13;14.90;99.90
18450;DHT22;9354;50.194;7.690;2023-08-06T12:37:41;14.90;99.90
18450;DHT22;9354;50.194;7.690;2023-08-06T12:40:10;14.90;99.90
18450;DHT22;9354;50.194;7.690;2023-08-06T12:42:37;14.90;99.90
18450;DHT22;9354;50.194;7.690;2023-08-06T12:45:05;15.00;99.90
18450;DHT22;9354;50.194;7.690;2023-08-06T12:47:33;15.10;99.90
18450;DHT22;9354;50.194;7.690;2023-08-06T12:50:00;15.10;99.90
18450;DHT22;9354;50.194;7.690;2023-08-06T12:52:29;15.10;99.90
18450;DHT22;9354;50.194;7.690;2023-08-06T12:54:56;15.20;99.90
18450;DHT22;9354;50.194;7.690;2023-08-06T12:57:24;15.20;99.90
18450;DHT22;9354;50.194;7.690;2023-08-06T12:59:52;15.20;99.90
18450;DHT22;9354;50.194;7.690;2023-08-06T13:02:20;15.20;99.90
18450;DHT22;9354;50.194;7.690;2023-08-06T13:04:47;15.20;99.90
18450;DHT22;9354;50.194;7.690;2023-08-06T13:07:15;15.20;99.90
18450;DHT22;9354;50.194;7.690;2023-08-06T13:09:44;15.30;99.90
18450;DHT22;9354;50.194;7.690;2023-08-06T13:12:11;15.30;99.90
18450;DHT22;9354;50.194;7.690;2023-08-06T13:14:38;15.40;99.90
18450;DHT22;9354;50.194;7.690;2023-08-06T13:17:06;15.50;99.90
18450;DHT22;9354;50.194;7.690;2023-08-06T13:19:34;15.60;99.90
18450;DHT22;9354;50.194;7.690;2023-08-06T13:22:03;15.60;99.90
18450;DHT22;9354;50.194;7.690;2023-08-06T13:24:32;15.60;99.90
18450;DHT22;9354;50.194;7.690;2023-08-06T13:27:02;15.70;99.90
18450;DHT22;9354;50.194;7.690;2023-08-06T13:29:29;15.70;99.90
18450;DHT22;9354;50.194;7.690;2023-08-06T13:31:57;15.80;99.90
18450;DHT22;9354;50.194;7.690;2023-08-06T13:34:24;15.90;99.90
18450;DHT22;9354;50.194;7.690;2023-08-06T13:36:53;16.00;99.90
18450;DHT22;9354;50.194;7.690;2023-08-06T13:39:20;16.00;99.90
18450;DHT22;9354;50.194;7.690;2023-08-06T13:41:48;16.00;99.90
18450;DHT22;9354;50.194;7.690;2023-08-06T13:44:16;16.10;99.90
18450;DHT22;9354;50.194;7.690;2023-08-06T13:46:44;16.10;99.90
18450;DHT22;9354;50.194;7.690;2023-08-06T13:49:11;16.10;99.90
18450;DHT22;9354;50.194;7.690;2023-08-06T13:51:38;16.20;99.90
18450;DHT22;9354;50.194;7.690;2023-08-06T13:54:06;16.10;99.90
18450;DHT22;9354;50.194;7.690;2023-08-06T13:56:34;16.00;99.90
18450;DHT22;9354;50.194;7.690;2023-08-06T13:59:04;15.80;99.90
18450;DHT22;9354;50.194;7.690;2023-08-06T14:01:33;15.70;99.90
18450;DHT22;9354;50.194;7.690;2023-08-06T14:04:00;15.60;99.90
18450;DHT22;9354;50.194;7.690;2023-08-06T14:06:28;15.50;99.90
18450;DHT22;9354;50.194;7.690;2023-08-06T14:08:56;15.50;99.90
18450;DHT22;9354;50.194;7.690;2023-08-06T14:11:23;15.50;99.90
18450;DHT22;9354;50.194;7.690;2023-08-06T14:13:51;15.70;99.90
18450;DHT22;9354;50.194;7.690;2023-08-06T14:16:18;15.80;99.90
18450;DHT22;9354;50.194;7.690;2023-08-06T14:18:48;16.00;99.90
18450;DHT22;9354;50.194;7.690;2023-08-06T14:21:15;16.00;99.90
18450;DHT22;9354;50.194;7.690;2023-08-06T14:23:43;16.00;99.90
18450;DHT22;9354;50.194;7.690;2023-08-06T14:26:11;16.00;99.90
18450;DHT22;9354;50.194;7.690;2023-08-06T14:28:41;15.90;99.90
18450;DHT22;9354;50.194;7.690;2023-08-06T14:31:08;15.80;99.90
18450;DHT22;9354;50.194;7.690;2023-08-06T14:33:35;15.80;99.90
18450;DHT22;9354;50.194;7.690;2023-08-06T14:36:04;15.70;99.90
18450;DHT22;9354;50.194;7.690;2023-08-06T14:38:32;15.60;99.90
18450;DHT22;9354;50.194;7.690;2023-08-06T14:40:59;15.50;99.90
18450;DHT22;9354;50.194;7.690;2023-08-06T14:43:27;15.40;99.90
18450;DHT22;9354;50.194;7.690;2023-08-06T14:45:54;15.40;99.90
18450;DHT22;9354;50.194;7.690;2023-08-06T14:48:21;15.30;99.90
18450;DHT22;9354;50.194;7.690;2023-08-06T14:50:49;15.30;99.90
18450;DHT22;9354;50.194;7.690;2023-08-06T14:53:17;15.20;99.90
18450;DHT22;9354;50.194;7.690;2023-08-06T14:55:45;15.20;99.90
18450;DHT22;9354;50.194;7.690;2023-08-06T14:58:12;15.20;99.90
18450;DHT22;9354;50.194;7.690;2023-08-06T15:00:40;15.20;99.90
18450;DHT22;9354;50.194;7.690;2023-08-06T15:03:08;15.20;99.90
18450;DHT22;9354;50.194;7.690;2023-08-06T15:05:37;15.20;99.90
18450;DHT22;9354;50.194;7.690;2023-08-06T15:08:05;15.20;99.90
18450;DHT22;9354;50.194;7.690;2023-08-06T15:10:34;15.10;99.90
18450;DHT22;9354;50.194;7.690;2023-08-06T15:13:01;15.20;99.90
18450;DHT22;9354;50.194;7.690;2023-08-06T15:15:29;15.10;99.90
18450;DHT22;9354;50.194;7.690;2023-08-06T15:17:56;15.10;99.90
18450;DHT22;9354;50.194;7.690;2023-08-06T15:20:24;15.10;99.90
18450;DHT22;9354;50.194;7.690;2023-08-06T15:22:51;15.00;99.90
18450;DHT22;9354;50.194;7.690;2023-08-06T15:25:19;15.00;99.90
18450;DHT22;9354;50.194;7.690;2023-08-06T15:27:47;14.90;99.90
18450;DHT22;9354;50.194;7.690;2023-08-06T15:30:15;14.80;99.90
18450;DHT22;9354;50.194;7.690;2023-08-06T15:32:42;14.80;99.90
18450;DHT22;9354;50.194;7.690;2023-08-06T15:35:10;14.70;99.90
18450;DHT22;9354;50.194;7.690;2023-08-06T15:37:38;14.70;99.90
18450;DHT22;9354;50.194;7.690;2023-08-06T15:40:06;14.70;99.90
18450;DHT22;9354;50.194;7.690;2023-08-06T15:42:34;14.70;99.90
18450;DHT22;9354;50.194;7.690;2023-08-06T15:45:03;14.70;99.90
18450;DHT22;9354;50.194;7.690;2023-08-06T15:47:30;14.60;99.90
18450;DHT22;9354;50.194;7.690;2023-08-06T15:49:58;14.60;99.90
18450;DHT22;9354;50.194;7.690;2023-08-06T15:52:25;14.60;99.90
18450;DHT22;9354;50.194;7.690;2023-08-06T15:54:52;14.60;99.90